Portada
METAR-TAF:

METAR-TAF

Aeroports :

Turaif, Aràbia Saudita

latitud: 31-41N, longitud: 038-44E, altitud: 813 m

Observació

L'informe es va fer fa 24 minuts, a les 04:00 UTC
Vent 11 kt del Est
Temperatura 15°C
Humitat 48%
Pressió 1021 hPa
Visibilitat 10 km o més
sense núvols per sota de 1500 mi sense presència de cumulonimbus.

METAR: OETR 220400Z 09011KT CAVOK 15/04 Q1021 NOSIG

Hora: 07:24 (04:24 UTC)

Pronòstic

L'informe es va fer fa 5 hores i 24 minuts, a les 23:00 UTC
Pronòstic vàlid del 22 a les 00 UTC al 23 a les 06 UTC
Vent 3 kt amb direcció variable
Visibilitat 10 km o més
sense núvols per sota de 1500 mi sense presència de cumulonimbus.
Evolucionant progressivament
l' 22 a les 06 UTC al 22 a les 08 UTC
Vent 13 kt del Sud-Est

TAF: OETR 212300Z 2200/2306 VRB03KT CAVOK BECMG 2206/2208 14013KT

Observacions i pronòstics meteorològics de més de 4000 aeroports (METAR i TAF).

Les estacions disponibles són els punts grocs i vermells al mapa.

Posi el ratolí al punt desitjat per veure el nom de l'estació.

Feu clic per veure les observacions i els pronòstics meteorològics.

Per canviar el mapa: feu clic els botons verds amb una creu de color negre per apropar; al botó verd amb un guió per allunyar la imatge; o en les fletxes verdes per a mapes adjacents.


METAR-TAF: